RYR19HB LEPA-EGNM
Flight info
| Callsign | RYR19HB |
|---|---|
| Flight time | N/A |
| Altitude | 34000 |
| Route | DRAGO DCT PAPOS DCT UMURE N863 GIROM DCT AGN DCT SECHE DCT UVELI DCT CNA DCT TUPAR UN861 ANG DCT AKIKI UN867 AVANT UM184 HEMEL T420 TNT N57 DENBY DCT LBA |
| Aircraft | B738/M-SDE2E3FGHIRWXY/LB1 |
Departure
| Time | 2026-05-04 08:25 |
|---|---|
| Airport | Palma de Mallorca Airport (LEPA) |
Arrival
| Time | N/A |
|---|---|
| Airport | Leeds Bradford Airport (EGNM) |
| Time | Latitude | Longitude | Altitude | Speed | Heading |
|---|---|---|---|---|---|
| 2026-05-04 08:13 | 39.55416 | 2.73178 | 37 ft | 0 kts | 15° |
| 2026-05-04 08:21 | 39.55421 | 2.73180 | 37 ft | 5 kts | 14° |
| 2026-05-04 08:21 | 39.55494 | 2.73181 | 37 ft | 14 kts | 22° |
| 2026-05-04 08:22 | 39.55554 | 2.73286 | 37 ft | 21 kts | 59° |
| 2026-05-04 08:22 | 39.55637 | 2.73462 | 37 ft | 19 kts | 59° |
| 2026-05-04 08:24 | 39.55926 | 2.73873 | 37 ft | 19 kts | 328° |
| 2026-05-04 08:24 | 39.55983 | 2.73751 | 37 ft | 13 kts | 241° |
| 2026-05-04 08:24 | 39.55869 | 2.73512 | 37 ft | 64 kts | 238° |
| 2026-05-04 08:24 | 39.55493 | 2.72713 | 37 ft | 141 kts | 239° |
| 2026-05-04 08:25 | 39.54887 | 2.71407 | 257 ft | 188 kts | 239° |
| 2026-05-04 08:25 | 39.54206 | 2.69931 | 1107 ft | 195 kts | 238° |
| 2026-05-04 08:25 | 39.53509 | 2.68417 | 2063 ft | 196 kts | 237° |
| 2026-05-04 08:25 | 39.52761 | 2.66920 | 2931 ft | 200 kts | 235° |
| 2026-05-04 08:26 | 39.51971 | 2.65398 | 3770 ft | 207 kts | 235° |
| 2026-05-04 08:27 | 39.45387 | 2.52701 | 7708 ft | 311 kts | 238° |
| 2026-05-04 08:28 | 39.44615 | 2.49982 | 7753 ft | 340 kts | 264° |
| 2026-05-04 08:28 | 39.44912 | 2.46905 | 7892 ft | 355 kts | 288° |
| 2026-05-04 08:28 | 39.46163 | 2.44136 | 8639 ft | 361 kts | 308° |
| 2026-05-04 08:28 | 39.48085 | 2.41959 | 9123 ft | 377 kts | 326° |
| 2026-05-04 08:29 | 39.50522 | 2.40593 | 9718 ft | 388 kts | 342° |
| 2026-05-04 08:29 | 39.53083 | 2.39547 | 10361 ft | 387 kts | 330° |
| 2026-05-04 08:29 | 39.55162 | 2.37417 | 11017 ft | 380 kts | 307° |
| 2026-05-04 08:31 | 39.67769 | 2.19184 | 15293 ft | 399 kts | 311° |
| 2026-05-04 08:33 | 39.81899 | 2.01051 | 18673 ft | 420 kts | 310° |
| 2026-05-04 08:33 | 39.83981 | 1.98367 | 19089 ft | 422 kts | 310° |
| 2026-05-04 08:35 | 39.98150 | 1.80042 | 21763 ft | 439 kts | 309° |
| 2026-05-04 08:35 | 40.00369 | 1.77272 | 22106 ft | 446 kts | 314° |
| 2026-05-04 08:35 | 40.03099 | 1.75186 | 22376 ft | 466 kts | 333° |
| 2026-05-04 08:35 | 40.06151 | 1.73720 | 22795 ft | 468 kts | 333° |
| 2026-05-04 08:37 | 40.24651 | 1.64345 | 24576 ft | 481 kts | 332° |
| 2026-05-04 08:37 | 40.27772 | 1.62730 | 24791 ft | 484 kts | 332° |
| 2026-05-04 08:37 | 40.30915 | 1.61103 | 25039 ft | 487 kts | 332° |
| 2026-05-04 08:38 | 40.34065 | 1.59473 | 25321 ft | 488 kts | 332° |
| 2026-05-04 08:38 | 40.37229 | 1.57835 | 25593 ft | 489 kts | 332° |
| 2026-05-04 08:38 | 40.40398 | 1.56193 | 25844 ft | 491 kts | 332° |
| 2026-05-04 08:40 | 40.62573 | 1.44655 | 28203 ft | 488 kts | 331° |
| 2026-05-04 08:40 | 40.65727 | 1.43009 | 28571 ft | 487 kts | 331° |
| 2026-05-04 08:40 | 40.68878 | 1.41367 | 28954 ft | 486 kts | 331° |
| 2026-05-04 08:41 | 40.72019 | 1.39727 | 29320 ft | 485 kts | 330° |
| 2026-05-04 08:41 | 40.75155 | 1.38088 | 29662 ft | 485 kts | 330° |
| 2026-05-04 08:41 | 40.78293 | 1.36446 | 30014 ft | 484 kts | 330° |
| 2026-05-04 08:41 | 40.81463 | 1.34785 | 30329 ft | 484 kts | 330° |
| 2026-05-04 08:42 | 40.84590 | 1.33145 | 30638 ft | 483 kts | 330° |
| 2026-05-04 08:42 | 40.87706 | 1.31509 | 30944 ft | 482 kts | 330° |
| 2026-05-04 08:42 | 40.90776 | 1.29895 | 31257 ft | 481 kts | 330° |
| 2026-05-04 08:42 | 40.93881 | 1.28261 | 31523 ft | 481 kts | 330° |
| 2026-05-04 08:43 | 40.96991 | 1.26622 | 31787 ft | 481 kts | 330° |
| 2026-05-04 08:43 | 41.00094 | 1.24986 | 32070 ft | 480 kts | 330° |
| 2026-05-04 08:43 | 41.03191 | 1.23351 | 32353 ft | 479 kts | 330° |
| 2026-05-04 08:43 | 41.06290 | 1.21713 | 32618 ft | 479 kts | 330° |
| 2026-05-04 08:44 | 41.09382 | 1.20077 | 32862 ft | 479 kts | 330° |
| 2026-05-04 08:44 | 41.12472 | 1.18442 | 33120 ft | 479 kts | 330° |
| 2026-05-04 08:46 | 41.36400 | 1.14865 | 33985 ft | 498 kts | 349° |
| 2026-05-04 08:46 | 41.43293 | 1.14149 | 34013 ft | 496 kts | 348° |
| 2026-05-04 08:47 | 41.50169 | 1.13439 | 34003 ft | 495 kts | 348° |
| 2026-05-04 08:47 | 41.57002 | 1.12724 | 34020 ft | 493 kts | 348° |
| 2026-05-04 08:48 | 41.63833 | 1.11964 | 34004 ft | 492 kts | 348° |
| 2026-05-04 08:48 | 41.70656 | 1.11206 | 33988 ft | 492 kts | 348° |
| 2026-05-04 08:49 | 41.77482 | 1.10484 | 34010 ft | 492 kts | 348° |
| 2026-05-04 08:50 | 42.01463 | 1.07970 | 33991 ft | 496 kts | 348° |
| 2026-05-04 08:51 | 42.08348 | 1.07242 | 33994 ft | 496 kts | 348° |
| 2026-05-04 08:51 | 42.15244 | 1.06510 | 33972 ft | 498 kts | 348° |
| 2026-05-04 08:52 | 42.22150 | 1.05756 | 34008 ft | 498 kts | 348° |
| 2026-05-04 08:52 | 42.29040 | 1.04993 | 34026 ft | 496 kts | 348° |
| 2026-05-04 08:54 | 42.56420 | 1.02004 | 33985 ft | 491 kts | 349° |
| 2026-05-04 08:55 | 42.63221 | 1.01262 | 33995 ft | 490 kts | 349° |
| 2026-05-04 08:55 | 42.69974 | 1.00527 | 33972 ft | 489 kts | 349° |
| 2026-05-04 09:01 | 43.41585 | 0.92616 | 33963 ft | 495 kts | 349° |
| 2026-05-04 09:01 | 43.48472 | 0.91846 | 33972 ft | 496 kts | 350° |
| 2026-05-04 09:02 | 43.55355 | 0.91075 | 33966 ft | 497 kts | 350° |
| 2026-05-04 09:02 | 43.62250 | 0.90300 | 33963 ft | 497 kts | 350° |
| 2026-05-04 09:03 | 43.69148 | 0.89523 | 33955 ft | 497 kts | 350° |
| 2026-05-04 09:03 | 43.76047 | 0.88745 | 33965 ft | 497 kts | 350° |
| 2026-05-04 09:04 | 43.82932 | 0.87966 | 33996 ft | 497 kts | 351° |
| 2026-05-04 09:04 | 43.89779 | 0.86815 | 33879 ft | 490 kts | 336° |
| 2026-05-04 09:04 | 43.92853 | 0.84958 | 34045 ft | 477 kts | 328° |
| 2026-05-04 09:05 | 43.95837 | 0.82937 | 34044 ft | 478 kts | 328° |
| 2026-05-04 09:05 | 44.01854 | 0.78910 | 33974 ft | 481 kts | 329° |
| 2026-05-04 09:06 | 44.07923 | 0.74948 | 33989 ft | 483 kts | 329° |
| 2026-05-04 09:08 | 44.32271 | 0.59121 | 33968 ft | 482 kts | 329° |
| 2026-05-04 09:08 | 44.38345 | 0.55146 | 33954 ft | 482 kts | 329° |
| 2026-05-04 09:09 | 44.44408 | 0.51169 | 33967 ft | 481 kts | 330° |
| 2026-05-04 09:09 | 44.50425 | 0.47189 | 33945 ft | 482 kts | 329° |
| 2026-05-04 09:10 | 44.56476 | 0.43166 | 33948 ft | 482 kts | 329° |
| 2026-05-04 09:10 | 44.62529 | 0.39134 | 33959 ft | 482 kts | 330° |
| 2026-05-04 09:11 | 44.68582 | 0.35093 | 33943 ft | 484 kts | 330° |
| 2026-05-04 09:11 | 44.74662 | 0.31027 | 33946 ft | 484 kts | 330° |
| 2026-05-04 09:12 | 44.80741 | 0.26952 | 33949 ft | 484 kts | 329° |
| 2026-05-04 09:14 | 45.05061 | 0.10551 | 33944 ft | 486 kts | 330° |
| 2026-05-04 09:14 | 45.11120 | 0.06447 | 33950 ft | 486 kts | 330° |
| 2026-05-04 09:15 | 45.17220 | 0.02304 | 33931 ft | 486 kts | 330° |
| 2026-05-04 09:15 | 45.23315 | -0.01846 | 33974 ft | 487 kts | 330° |
| 2026-05-04 09:17 | 45.50762 | -0.20662 | 33970 ft | 486 kts | 330° |
| 2026-05-04 09:18 | 45.56856 | -0.24868 | 33970 ft | 487 kts | 330° |
| 2026-05-04 09:18 | 45.62949 | -0.29083 | 33966 ft | 487 kts | 330° |
| 2026-05-04 09:19 | 45.69153 | -0.33005 | 33937 ft | 490 kts | 337° |
| 2026-05-04 09:19 | 45.75669 | -0.35872 | 33955 ft | 492 kts | 341° |
| 2026-05-04 09:20 | 45.82233 | -0.38598 | 33968 ft | 491 kts | 340° |
| 2026-05-04 09:20 | 45.88761 | -0.41464 | 33980 ft | 490 kts | 339° |
| 2026-05-04 09:21 | 45.95269 | -0.44418 | 33970 ft | 490 kts | 339° |
| 2026-05-04 09:21 | 46.01768 | -0.47391 | 33970 ft | 491 kts | 339° |
| 2026-05-04 09:22 | 46.08281 | -0.50369 | 33984 ft | 491 kts | 339° |
| 2026-05-04 09:22 | 46.14790 | -0.53348 | 33964 ft | 491 kts | 339° |
| 2026-05-04 09:23 | 46.21300 | -0.56334 | 33972 ft | 491 kts | 339° |
| 2026-05-04 09:23 | 46.27812 | -0.59329 | 33971 ft | 491 kts | 339° |
| 2026-05-04 09:25 | 46.50904 | -0.68034 | 34015 ft | 496 kts | 353° |
| 2026-05-04 09:25 | 46.54350 | -0.68485 | 33968 ft | 497 kts | 353° |
| 2026-05-04 09:26 | 46.61233 | -0.69425 | 33962 ft | 498 kts | 352° |
| 2026-05-04 09:26 | 46.68117 | -0.70512 | 33963 ft | 498 kts | 351° |
| 2026-05-04 09:27 | 46.74996 | -0.71676 | 33987 ft | 498 kts | 351° |
| 2026-05-04 09:27 | 46.81883 | -0.72855 | 33973 ft | 498 kts | 351° |
| 2026-05-04 09:28 | 46.87605 | -0.73830 | 33971 ft | 498 kts | 351° |
| 2026-05-04 09:28 | 46.94484 | -0.75001 | 33979 ft | 497 kts | 351° |
| 2026-05-04 09:29 | 47.01361 | -0.76173 | 33976 ft | 497 kts | 351° |
| 2026-05-04 09:29 | 47.08232 | -0.77347 | 33981 ft | 497 kts | 351° |
| 2026-05-04 09:30 | 47.15109 | -0.78526 | 33973 ft | 497 kts | 351° |
| 2026-05-04 09:30 | 47.21983 | -0.79708 | 33994 ft | 497 kts | 351° |
| 2026-05-04 09:31 | 47.28859 | -0.80892 | 33986 ft | 497 kts | 351° |
| 2026-05-04 09:31 | 47.35728 | -0.82079 | 33989 ft | 497 kts | 351° |
| 2026-05-04 09:32 | 47.42595 | -0.83269 | 34010 ft | 497 kts | 351° |
| 2026-05-04 09:34 | 47.69891 | -0.89427 | 33982 ft | 495 kts | 347° |
| 2026-05-04 09:34 | 47.76666 | -0.91287 | 33970 ft | 495 kts | 347° |
| 2026-05-04 09:35 | 47.83400 | -0.93093 | 33980 ft | 495 kts | 347° |
| 2026-05-04 09:35 | 47.90172 | -0.94899 | 33972 ft | 494 kts | 347° |
| 2026-05-04 09:37 | 48.17206 | -1.02173 | 33983 ft | 493 kts | 348° |
| 2026-05-04 09:38 | 48.23954 | -1.04002 | 33990 ft | 493 kts | 348° |
| 2026-05-04 09:38 | 48.30699 | -1.05835 | 33981 ft | 493 kts | 348° |
| 2026-05-04 09:39 | 48.37489 | -1.07298 | 33913 ft | 496 kts | 358° |
| 2026-05-04 09:39 | 48.40928 | -1.07194 | 34055 ft | 493 kts | 2° |
| 2026-05-04 09:39 | 48.44359 | -1.06835 | 33978 ft | 496 kts | 4° |
| 2026-05-04 09:40 | 48.51233 | -1.06039 | 33981 ft | 496 kts | 3° |
| 2026-05-04 09:40 | 48.58119 | -1.05488 | 33992 ft | 495 kts | 1° |
| 2026-05-04 09:42 | 48.85697 | -1.04118 | 33982 ft | 496 kts | 1° |
| 2026-05-04 09:43 | 48.92585 | -1.03769 | 33995 ft | 496 kts | 1° |
| 2026-05-04 09:43 | 48.99485 | -1.03418 | 33996 ft | 496 kts | 1° |
| 2026-05-04 09:44 | 49.06383 | -1.03068 | 33996 ft | 496 kts | 1° |
| 2026-05-04 09:46 | 49.34041 | -1.01652 | 34014 ft | 495 kts | 1° |
| 2026-05-04 09:46 | 49.40893 | -1.01299 | 33998 ft | 496 kts | 1° |
| 2026-05-04 09:47 | 49.47751 | -1.00945 | 34012 ft | 495 kts | 1° |
| 2026-05-04 09:49 | 49.75252 | -0.99514 | 34015 ft | 495 kts | 1° |
| 2026-05-04 09:51 | 49.99300 | -0.98249 | 34021 ft | 494 kts | 1° |
| 2026-05-04 09:51 | 50.06157 | -0.97886 | 34013 ft | 494 kts | 1° |
| 2026-05-04 09:52 | 50.13025 | -0.97521 | 34013 ft | 493 kts | 1° |
| 2026-05-04 09:52 | 50.19863 | -0.97157 | 34024 ft | 493 kts | 1° |
| 2026-05-04 09:53 | 50.26720 | -0.96791 | 34016 ft | 493 kts | 1° |
| 2026-05-04 09:53 | 50.33575 | -0.96424 | 34012 ft | 493 kts | 1° |
| 2026-05-04 09:54 | 50.40426 | -0.96056 | 34021 ft | 492 kts | 1° |
| 2026-05-04 09:54 | 50.47270 | -0.95687 | 34018 ft | 492 kts | 1° |
| 2026-05-04 09:55 | 50.54106 | -0.95318 | 34010 ft | 491 kts | 1° |
| 2026-05-04 09:55 | 50.60932 | -0.94948 | 34014 ft | 491 kts | 1° |
| 2026-05-04 09:56 | 50.67747 | -0.94578 | 34016 ft | 490 kts | 1° |
| 2026-05-04 09:56 | 50.71152 | -0.94393 | 34010 ft | 489 kts | 1° |